Time;durP1;ratioP1;P1;durP2;ratioP2;P2;SDS_P1;SDS_P2;PMS_P1;PMS_P2;Temp;Humidity;BMP_temperature;BMP_pressure;BME280_temperature;BME280_humidity;BME280_pressure;Samples;Min_cycle;Max_cycle;Signal;HPM_P1;HPM_P2
2021/11/06 00:00:30;;;;;;;4.80;1.88;;;7.70;99.90;;;;;;4987993;28;20096;-66
2021/11/06 00:02:55;;;;;;;5.03;1.50;;;7.70;99.90;;;;;;5007255;28;20116;-66
2021/11/06 00:05:22;;;;;;;8.10;2.03;;;7.70;99.90;;;;;;4998205;28;20060;-66
2021/11/06 00:07:48;;;;;;;8.73;2.10;;;7.80;99.90;;;;;;5004031;28;20041;-66
2021/11/06 00:10:14;;;;;;;10.38;2.13;;;7.80;99.90;;;;;;5001941;28;20045;-66
2021/11/06 00:12:40;;;;;;;8.05;1.80;;;7.80;99.90;;;;;;5004353;28;20045;-66
2021/11/06 00:15:08;;;;;;;8.30;2.33;;;7.80;99.90;;;;;;4999211;28;20061;-66
2021/11/06 00:17:35;;;;;;;6.88;2.28;;;7.80;99.90;;;;;;5005186;28;20052;-66
2021/11/06 00:20:01;;;;;;;5.38;1.80;;;7.80;99.90;;;;;;4985784;28;20199;-66
2021/11/06 00:22:27;;;;;;;6.85;2.00;;;7.90;99.90;;;;;;5006043;28;20081;-66
2021/11/06 00:24:53;;;;;;;5.63;1.75;;;7.90;99.90;;;;;;4984650;28;20061;-66
2021/11/06 00:27:19;;;;;;;5.90;2.58;;;7.90;99.90;;;;;;4984275;28;20129;-66
2021/11/06 00:29:44;;;;;;;8.15;1.95;;;7.90;99.90;;;;;;4998033;28;20025;-66
2021/11/06 00:32:10;;;;;;;7.32;2.10;;;7.90;99.90;;;;;;5005546;28;20552;-66
2021/11/06 00:34:36;;;;;;;7.35;2.20;;;8.00;99.90;;;;;;4997873;28;20635;-66
2021/11/06 00:37:02;;;;;;;7.13;1.92;;;7.90;99.90;;;;;;4988827;28;20088;-66
2021/11/06 00:39:28;;;;;;;6.00;2.17;;;7.90;99.90;;;;;;5002386;28;20084;-66
2021/11/06 00:41:54;;;;;;;5.43;2.00;;;7.90;99.90;;;;;;5000275;28;20061;-66
2021/11/06 00:44:20;;;;;;;8.90;2.17;;;7.90;99.90;;;;;;4985945;28;20125;-66
2021/11/06 00:46:46;;;;;;;5.97;1.88;;;8.00;99.90;;;;;;4999626;28;20553;-66
2021/11/06 00:49:12;;;;;;;7.57;2.10;;;7.90;99.90;;;;;;5005345;28;20065;-66
2021/11/06 00:51:37;;;;;;;9.63;2.20;;;8.00;99.90;;;;;;5000394;28;20112;-66
2021/11/06 00:54:03;;;;;;;5.43;1.85;;;8.00;99.90;;;;;;5005173;28;20057;-66
2021/11/06 00:56:29;;;;;;;4.90;1.35;;;8.00;99.90;;;;;;4993841;28;20038;-66
2021/11/06 00:58:54;;;;;;;8.45;1.80;;;8.00;99.90;;;;;;5003167;28;20034;-66
2021/11/06 01:01:20;;;;;;;7.85;2.00;;;8.00;99.90;;;;;;5001541;28;20049;-66
2021/11/06 01:03:46;;;;;;;7.15;1.80;;;8.00;99.90;;;;;;5005747;28;20042;-66
2021/11/06 01:06:11;;;;;;;6.90;2.22;;;8.00;99.90;;;;;;4980231;28;20034;-66
2021/11/06 01:08:37;;;;;;;9.90;3.17;;;8.00;99.90;;;;;;4988282;28;20421;-66
2021/11/06 01:11:03;;;;;;;7.50;2.05;;;8.00;99.90;;;;;;5003062;28;20038;-66
2021/11/06 01:13:29;;;;;;;5.38;2.00;;;8.00;99.90;;;;;;5000143;28;20099;-66
2021/11/06 01:15:55;;;;;;;4.30;1.92;;;8.00;99.90;;;;;;4985198;28;20294;-66
2021/11/06 01:18:21;;;;;;;13.57;2.40;;;7.90;99.90;;;;;;5009940;28;20144;-66
2021/11/06 01:20:47;;;;;;;6.03;2.35;;;7.90;99.90;;;;;;4989380;28;20039;-66
2021/11/06 01:23:13;;;;;;;4.07;1.95;;;7.90;99.90;;;;;;5004340;28;20376;-66
2021/11/06 01:25:39;;;;;;;6.10;2.28;;;7.90;99.90;;;;;;4994154;28;20190;-66
2021/11/06 01:28:05;;;;;;;5.03;2.20;;;7.80;99.90;;;;;;4964425;28;20042;-66
2021/11/06 01:30:30;;;;;;;5.78;2.10;;;7.80;99.90;;;;;;5002842;28;20030;-66
2021/11/06 01:32:56;;;;;;;4.80;2.28;;;7.70;99.90;;;;;;4985363;28;20148;-66
2021/11/06 01:35:22;;;;;;;6.82;2.25;;;7.70;99.90;;;;;;5011720;28;20053;-66
2021/11/06 01:37:48;;;;;;;6.00;2.10;;;7.60;99.90;;;;;;5001172;28;20041;-66
2021/11/06 01:40:17;;;;;;;6.70;2.40;;;7.60;99.90;;;;;;4990045;28;20508;-66
2021/11/06 01:42:43;;;;;;;4.18;1.98;;;7.60;99.90;;;;;;5001727;28;20042;-66
2021/11/06 01:45:12;;;;;;;9.52;2.50;;;7.60;99.90;;;;;;4987227;28;20044;-66
2021/11/06 01:47:38;;;;;;;8.38;2.60;;;7.60;99.90;;;;;;5000629;28;20064;-66
2021/11/06 01:50:07;;;;;;;6.00;2.20;;;7.60;99.90;;;;;;5006735;28;20446;-67
2021/11/06 01:52:32;;;;;;;7.63;2.80;;;7.60;99.90;;;;;;5004324;28;20405;-66
2021/11/06 01:54:58;;;;;;;6.18;2.30;;;7.60;99.90;;;;;;4990044;28;20041;-66
2021/11/06 01:57:25;;;;;;;5.25;2.65;;;7.60;99.90;;;;;;5004678;28;20552;-66
2021/11/06 01:59:52;;;;;;;8.40;2.95;;;7.60;99.90;;;;;;5002889;28;20133;-66
2021/11/06 02:02:18;;;;;;;6.15;3.08;;;7.60;99.90;;;;;;5009348;28;20104;-66
2021/11/06 02:04:45;;;;;;;8.02;3.03;;;7.70;99.90;;;;;;4998736;28;20030;-66
2021/11/06 02:07:11;;;;;;;6.20;3.20;;;7.70;99.90;;;;;;5008882;28;20105;-66
2021/11/06 02:09:37;;;;;;;10.73;3.10;;;7.70;99.90;;;;;;4987140;28;20038;-67
2021/11/06 02:12:03;;;;;;;7.00;3.28;;;7.70;99.90;;;;;;4987522;28;20072;-66
2021/11/06 02:14:29;;;;;;;6.85;3.10;;;7.70;99.90;;;;;;4998609;28;20109;-66
2021/11/06 02:16:55;;;;;;;7.00;3.17;;;7.70;99.90;;;;;;4991980;28;20037;-66
2021/11/06 02:19:27;;;;;;;10.23;3.40;;;7.80;99.90;;;;;;5003397;28;20057;-66
2021/11/06 02:21:55;;;;;;;12.60;3.33;;;7.80;99.90;;;;;;5005351;28;20548;-66
2021/11/06 02:24:20;;;;;;;10.68;3.33;;;7.80;99.90;;;;;;4983868;28;20058;-66
2021/11/06 02:26:47;;;;;;;9.50;3.15;;;7.80;99.90;;;;;;5009391;28;20085;-66
2021/11/06 02:29:13;;;;;;;6.15;3.60;;;7.80;99.90;;;;;;4999561;28;20057;-66
2021/11/06 02:31:39;;;;;;;7.60;3.50;;;7.80;99.90;;;;;;4975939;28;20056;-66
2021/11/06 02:34:06;;;;;;;4.82;3.17;;;7.80;99.90;;;;;;5001928;28;20130;-66
2021/11/06 02:36:32;;;;;;;11.00;4.28;;;7.80;99.90;;;;;;5006657;28;20058;-66
2021/11/06 02:38:58;;;;;;;5.43;3.88;;;7.80;99.90;;;;;;5003749;28;20451;-66
2021/11/06 02:41:24;;;;;;;13.80;4.10;;;7.80;99.90;;;;;;5003167;28;20096;-66
2021/11/06 02:43:50;;;;;;;10.40;4.45;;;7.80;99.90;;;;;;5007531;28;20073;-66
2021/11/06 02:46:15;;;;;;;11.98;4.63;;;7.80;99.90;;;;;;4999060;28;20080;-66
2021/11/06 02:48:41;;;;;;;7.75;4.25;;;7.90;99.90;;;;;;5004728;28;20042;-66
2021/11/06 02:51:07;;;;;;;10.13;4.47;;;7.90;99.90;;;;;;5003380;28;20046;-66
2021/11/06 02:53:32;;;;;;;10.88;4.40;;;7.90;99.90;;;;;;4990730;28;20072;-66
2021/11/06 02:55:58;;;;;;;9.43;4.80;;;7.90;99.90;;;;;;5001028;28;20038;-66
2021/11/06 02:58:24;;;;;;;8.38;4.70;;;7.90;99.90;;;;;;5002424;28;20561;-66
2021/11/06 03:00:50;;;;;;;10.88;4.72;;;7.90;99.90;;;;;;5001309;28;20038;-66
2021/11/06 03:03:15;;;;;;;10.02;4.70;;;7.90;99.90;;;;;;5007075;28;20038;-66
2021/11/06 03:05:41;;;;;;;11.07;5.22;;;8.00;99.90;;;;;;4998299;28;20045;-66
2021/11/06 03:08:07;;;;;;;8.10;4.97;;;7.90;99.90;;;;;;4989130;28;20045;-66
2021/11/06 03:10:32;;;;;;;10.07;5.22;;;8.00;99.90;;;;;;5001126;28;20604;-66
2021/11/06 03:13:00;;;;;;;9.35;4.50;;;8.00;99.90;;;;;;4985338;28;20096;-66
2021/11/06 03:15:25;;;;;;;9.80;5.50;;;8.00;99.90;;;;;;5001814;28;20048;-66
2021/11/06 03:17:51;;;;;;;10.35;5.32;;;8.00;99.90;;;;;;5001316;28;20046;-66
2021/11/06 03:20:19;;;;;;;12.40;6.85;;;8.10;99.90;;;;;;5004928;28;20042;-66
2021/11/06 03:22:45;;;;;;;11.75;6.13;;;8.10;99.90;;;;;;5001151;28;20042;-66
2021/11/06 03:25:12;;;;;;;11.98;6.63;;;8.10;99.90;;;;;;5002027;28;20069;-66
2021/11/06 03:27:37;;;;;;;11.70;6.82;;;8.10;99.90;;;;;;4998630;28;20053;-66
2021/11/06 03:30:08;;;;;;;11.70;7.10;;;8.10;99.90;;;;;;5006799;28;20045;-66
2021/11/06 03:32:35;;;;;;;15.00;7.28;;;8.20;99.90;;;;;;4982496;28;20524;-66
2021/11/06 03:35:01;;;;;;;11.27;7.07;;;8.20;99.90;;;;;;5008454;28;20976;-66
2021/11/06 03:37:27;;;;;;;11.18;6.70;;;8.20;99.90;;;;;;4998607;28;20109;-66
2021/11/06 03:39:53;;;;;;;9.15;7.10;;;8.20;99.90;;;;;;5002588;28;20046;-66
2021/11/06 03:42:19;;;;;;;10.82;7.90;;;8.20;99.90;;;;;;5001112;28;21149;-66
2021/11/06 03:44:44;;;;;;;11.02;8.15;;;8.30;99.90;;;;;;5006041;28;20045;-66
2021/11/06 03:47:10;;;;;;;13.15;7.80;;;8.30;99.90;;;;;;5000068;28;20041;-66
2021/11/06 03:49:36;;;;;;;14.60;9.95;;;8.30;99.90;;;;;;5007401;28;20045;-66
2021/11/06 03:52:01;;;;;;;12.68;8.88;;;8.30;99.90;;;;;;4998681;28;20034;-67
2021/11/06 03:54:27;;;;;;;17.00;10.02;;;8.30;99.90;;;;;;5004981;28;20049;-66
2021/11/06 03:56:53;;;;;;;14.32;8.82;;;8.30;99.90;;;;;;5005970;28;20381;-66
2021/11/06 03:59:18;;;;;;;17.00;10.35;;;8.30;99.90;;;;;;5002083;28;20049;-66
2021/11/06 04:01:44;;;;;;;14.40;11.73;;;8.40;99.90;;;;;;4990300;28;20042;-66
2021/11/06 04:04:10;;;;;;;15.40;11.68;;;8.40;99.90;;;;;;4996916;28;20034;-66
2021/11/06 04:06:36;;;;;;;17.08;11.20;;;8.30;99.90;;;;;;5006229;28;20037;-66
2021/11/06 04:09:03;;;;;;;16.83;11.27;;;8.30;99.90;;;;;;4972615;28;20034;-66
2021/11/06 04:11:28;;;;;;;15.18;10.70;;;8.40;99.90;;;;;;5004393;28;20044;-66
2021/11/06 04:13:54;;;;;;;16.83;11.77;;;8.40;99.90;;;;;;4998358;28;20042;-66
2021/11/06 04:16:20;;;;;;;19.02;12.43;;;8.40;99.90;;;;;;5006645;28;20045;-66
2021/11/06 04:18:46;;;;;;;20.58;12.93;;;8.50;99.90;;;;;;5002711;28;20053;-66
2021/11/06 04:21:11;;;;;;;17.52;12.68;;;8.50;99.90;;;;;;5003722;28;20506;-66
2021/11/06 04:23:37;;;;;;;18.98;13.18;;;8.50;99.90;;;;;;4999556;28;20068;-66
2021/11/06 04:26:04;;;;;;;23.77;13.23;;;8.50;99.90;;;;;;5007665;28;20112;-66
2021/11/06 04:28:30;;;;;;;19.52;13.18;;;8.50;99.90;;;;;;4998139;28;20073;-66
2021/11/06 04:30:56;;;;;;;16.52;12.48;;;8.60;99.90;;;;;;5003253;28;20442;-66
2021/11/06 04:33:22;;;;;;;21.20;13.35;;;8.60;99.90;;;;;;4989440;28;20045;-66
2021/11/06 04:35:47;;;;;;;20.40;12.68;;;8.60;99.90;;;;;;5002781;28;20054;-66
2021/11/06 04:38:13;;;;;;;20.65;14.00;;;8.60;99.90;;;;;;5005774;28;20046;-66
2021/11/06 04:40:39;;;;;;;18.77;13.50;;;8.60;99.90;;;;;;4984219;28;20128;-66
2021/11/06 04:43:05;;;;;;;17.65;12.93;;;8.60;99.90;;;;;;5006115;28;20034;-66
2021/11/06 04:45:31;;;;;;;17.05;14.35;;;8.60;99.90;;;;;;4984973;28;20088;-66
2021/11/06 04:47:57;;;;;;;24.27;13.85;;;8.60;99.90;;;;;;5003674;28;20045;-66
2021/11/06 04:50:22;;;;;;;22.45;13.77;;;8.60;99.90;;;;;;4999614;28;20431;-66
2021/11/06 04:52:48;;;;;;;19.70;14.45;;;8.60;99.90;;;;;;4988888;28;20100;-66
2021/11/06 04:55:15;;;;;;;22.23;14.45;;;8.50;99.90;;;;;;5001769;28;20026;-66
2021/11/06 04:57:41;;;;;;;23.38;15.43;;;8.70;99.90;;;;;;5001062;28;20042;-66
2021/11/06 05:00:10;;;;;;;17.63;14.20;;;8.70;99.90;;;;;;5000837;28;20033;-66
2021/11/06 05:02:37;;;;;;;23.08;15.25;;;8.70;99.90;;;;;;5005039;28;20053;-66
2021/11/06 05:05:03;;;;;;;24.40;16.02;;;8.70;99.90;;;;;;4996969;28;20041;-66
2021/11/06 05:07:28;;;;;;;21.95;16.15;;;8.70;99.90;;;;;;5003804;28;20034;-66
2021/11/06 05:09:55;;;;;;;21.23;16.42;;;8.70;99.90;;;;;;5005678;28;20410;-66
2021/11/06 05:12:21;;;;;;;21.98;16.40;;;8.70;99.90;;;;;;5004658;28;20046;-66
2021/11/06 05:14:48;;;;;;;22.05;16.65;;;8.70;99.90;;;;;;5001931;28;20061;-66
2021/11/06 05:17:16;;;;;;;22.23;15.70;;;8.80;99.90;;;;;;5000316;28;20505;-67
2021/11/06 05:19:42;;;;;;;21.90;15.60;;;8.70;99.90;;;;;;5002289;28;20069;-66
2021/11/06 05:22:08;;;;;;;22.52;16.95;;;8.70;99.90;;;;;;4994565;28;20344;-66
2021/11/06 05:24:34;;;;;;;19.45;16.15;;;8.70;99.90;;;;;;5000804;28;20031;-66
2021/11/06 05:27:00;;;;;;;23.83;16.45;;;8.70;99.90;;;;;;4999959;28;20034;-67
2021/11/06 05:29:26;;;;;;;20.52;15.05;;;8.70;99.90;;;;;;5004080;28;20044;-66
2021/11/06 05:31:51;;;;;;;24.92;17.10;;;8.70;99.90;;;;;;4996411;28;20051;-66
2021/11/06 05:34:17;;;;;;;22.52;16.30;;;8.70;99.90;;;;;;5000836;28;20041;-66
2021/11/06 05:36:43;;;;;;;21.48;15.68;;;8.80;99.90;;;;;;4996689;28;20054;-66
2021/11/06 05:39:09;;;;;;;22.42;16.38;;;8.70;99.90;;;;;;5003754;28;20074;-66
2021/11/06 05:41:35;;;;;;;21.77;15.88;;;8.80;99.90;;;;;;4980717;28;20157;-66
2021/11/06 05:44:02;;;;;;;23.52;16.63;;;8.70;99.90;;;;;;5003083;28;20049;-66
2021/11/06 05:46:28;;;;;;;22.60;17.52;;;8.70;99.90;;;;;;4996457;28;20084;-66
2021/11/06 05:48:53;;;;;;;24.98;16.17;;;8.70;99.90;;;;;;5005735;28;20551;-66
2021/11/06 05:51:19;;;;;;;23.30;15.73;;;8.70;99.90;;;;;;5000419;28;20035;-66
2021/11/06 05:53:45;;;;;;;22.92;16.20;;;8.70;99.90;;;;;;4995563;28;20387;-66
2021/11/06 05:56:10;;;;;;;22.20;17.40;;;8.80;99.90;;;;;;5002578;28;20347;-66
2021/11/06 05:58:36;;;;;;;21.90;16.25;;;8.70;99.90;;;;;;4977742;28;20061;-66
2021/11/06 06:01:02;;;;;;;18.55;15.40;;;8.70;99.90;;;;;;5004474;28;20163;-66
2021/11/06 06:03:28;;;;;;;19.67;16.45;;;8.70;99.90;;;;;;5002469;28;20565;-66
2021/11/06 06:05:53;;;;;;;23.40;16.98;;;8.80;99.90;;;;;;5005547;28;20038;-66
2021/11/06 06:08:19;;;;;;;19.90;15.27;;;8.70;99.90;;;;;;4996630;28;20084;-66
2021/11/06 06:10:45;;;;;;;21.38;15.38;;;8.80;99.90;;;;;;5004191;28;20049;-66
2021/11/06 06:13:11;;;;;;;21.50;16.42;;;8.80;99.90;;;;;;4996619;28;20037;-66
2021/11/06 06:15:37;;;;;;;22.23;15.80;;;8.80;99.90;;;;;;5001729;28;20112;-66
2021/11/06 06:18:03;;;;;;;21.67;16.05;;;8.80;99.90;;;;;;4999451;28;20034;-66
2021/11/06 06:20:29;;;;;;;23.13;16.83;;;8.80;99.90;;;;;;4986872;28;20457;-66
2021/11/06 06:22:54;;;;;;;21.85;16.65;;;8.80;99.90;;;;;;4997655;28;20088;-67
2021/11/06 06:25:20;;;;;;;22.80;16.48;;;8.80;99.90;;;;;;5002439;28;20037;-67
2021/11/06 06:27:46;;;;;;;23.42;18.25;;;8.90;99.90;;;;;;4987340;28;20050;-67
2021/11/06 06:30:14;;;;;;;23.15;16.48;;;8.90;99.90;;;;;;4995988;28;20045;-66
2021/11/06 06:32:41;;;;;;;23.25;16.35;;;8.90;99.90;;;;;;5009344;28;20104;-66
2021/11/06 06:35:08;;;;;;;27.40;17.35;;;8.90;99.90;;;;;;4995374;28;20120;-67
2021/11/06 06:37:34;;;;;;;25.58;17.67;;;8.90;99.90;;;;;;5002236;28;20029;-66
2021/11/06 06:39:59;;;;;;;22.23;17.58;;;8.90;99.90;;;;;;4997944;28;20036;-66
2021/11/06 06:42:25;;;;;;;26.30;18.55;;;8.90;99.90;;;;;;4985846;28;20062;-66
2021/11/06 06:44:52;;;;;;;25.15;17.50;;;8.90;99.90;;;;;;4998592;28;20386;-66
2021/11/06 06:47:18;;;;;;;25.48;18.40;;;9.00;99.90;;;;;;5006224;28;20046;-66
2021/11/06 06:49:46;;;;;;;24.92;18.92;;;9.00;99.90;;;;;;5001738;28;20038;-66
2021/11/06 06:52:12;;;;;;;25.23;19.00;;;9.00;99.90;;;;;;5007034;28;20058;-66
2021/11/06 06:54:38;;;;;;;25.38;18.67;;;9.00;99.90;;;;;;4995178;28;20379;-66
2021/11/06 06:57:04;;;;;;;28.30;18.83;;;9.00;99.90;;;;;;5002824;28;20045;-66
2021/11/06 06:59:32;;;;;;;24.17;18.00;;;9.00;99.90;;;;;;4980922;28;20065;-67
2021/11/06 07:01:59;;;;;;;24.90;18.27;;;9.00;99.90;;;;;;5005775;28;20099;-67
2021/11/06 07:04:26;;;;;;;21.00;18.70;;;9.00;99.90;;;;;;4980752;28;20125;-67
2021/11/06 07:06:53;;;;;;;26.50;19.90;;;9.00;99.90;;;;;;5002892;28;20041;-67
2021/11/06 07:09:19;;;;;;;26.13;18.63;;;9.10;99.90;;;;;;4981747;28;20387;-67
2021/11/06 07:11:45;;;;;;;24.88;18.80;;;9.10;99.90;;;;;;4982554;28;20108;-67
2021/11/06 07:14:11;;;;;;;25.85;18.73;;;9.10;99.90;;;;;;5005605;28;20120;-67
2021/11/06 07:16:37;;;;;;;27.17;18.65;;;9.10;99.90;;;;;;4985182;28;20037;-66
2021/11/06 07:19:03;;;;;;;25.30;19.00;;;9.10;99.90;;;;;;4990083;28;20390;-66
2021/11/06 07:21:29;;;;;;;29.75;18.35;;;9.10;99.90;;;;;;4984003;28;20111;-66
2021/11/06 07:23:54;;;;;;;29.23;18.25;;;9.10;99.90;;;;;;4990084;28;20042;-66
2021/11/06 07:26:20;;;;;;;23.77;17.60;;;9.10;99.90;;;;;;4968695;28;20068;-67
2021/11/06 07:28:46;;;;;;;24.23;18.23;;;9.10;99.90;;;;;;4988918;28;20112;-67
2021/11/06 07:31:12;;;;;;;27.20;17.52;;;9.20;99.90;;;;;;5000366;28;20048;-66
2021/11/06 07:33:38;;;;;;;24.50;17.85;;;9.20;99.90;;;;;;5006930;28;20080;-67
2021/11/06 07:36:04;;;;;;;24.08;17.20;;;9.20;99.90;;;;;;5004157;28;20108;-67
2021/11/06 07:38:31;;;;;;;24.52;17.92;;;9.30;99.90;;;;;;5004096;28;20092;-67
2021/11/06 07:40:56;;;;;;;20.02;17.27;;;9.20;99.90;;;;;;5000173;28;20576;-67
2021/11/06 07:43:22;;;;;;;24.63;17.25;;;9.30;99.90;;;;;;5006378;28;20030;-67
2021/11/06 07:45:48;;;;;;;23.10;16.90;;;9.30;99.90;;;;;;5006590;28;20436;-67
2021/11/06 07:48:13;;;;;;;23.98;17.40;;;9.30;99.90;;;;;;5001450;28;20049;-67
2021/11/06 07:50:39;;;;;;;22.55;16.67;;;9.30;99.90;;;;;;5005701;28;20482;-67
2021/11/06 07:53:05;;;;;;;23.63;17.60;;;9.30;99.90;;;;;;4981792;28;20080;-67
2021/11/06 07:55:31;;;;;;;24.65;17.00;;;9.30;99.90;;;;;;5007338;28;20049;-67
2021/11/06 07:57:57;;;;;;;22.98;17.50;;;9.20;99.90;;;;;;4983596;28;20046;-67
2021/11/06 08:00:23;;;;;;;26.85;16.77;;;9.30;99.90;;;;;;4990707;28;20042;-67
2021/11/06 08:02:48;;;;;;;39.60;17.52;;;9.30;99.90;;;;;;5000447;28;20109;-66
2021/11/06 08:05:17;;;;;;;23.63;16.80;;;9.20;99.90;;;;;;4988472;28;20050;-66
2021/11/06 08:07:43;;;;;;;22.25;17.02;;;9.20;99.90;;;;;;4980919;28;20052;-67
2021/11/06 08:10:09;;;;;;;20.63;17.02;;;9.20;99.90;;;;;;5009379;28;20423;-66
2021/11/06 08:12:39;;;;;;;25.58;17.15;;;9.30;99.90;;;;;;4980390;28;20144;-66
2021/11/06 08:15:07;;;;;;;24.70;16.40;;;9.30;99.90;;;;;;5003357;28;20042;-66
2021/11/06 08:17:32;;;;;;;27.35;18.20;;;9.30;99.90;;;;;;5002525;28;20034;-66
2021/11/06 08:19:58;;;;;;;25.67;17.08;;;9.30;99.90;;;;;;4988765;28;20038;-66
2021/11/06 08:22:25;;;;;;;26.02;16.88;;;9.30;99.90;;;;;;4985597;28;20046;-66
2021/11/06 08:24:51;;;;;;;27.17;17.70;;;9.30;99.90;;;;;;5005381;28;20035;-66
2021/11/06 08:27:16;;;;;;;24.83;16.67;;;9.40;99.90;;;;;;4989661;28;20046;-66
2021/11/06 08:29:42;;;;;;;27.63;17.55;;;9.40;99.90;;;;;;5000559;28;20042;-66
2021/11/06 08:32:08;;;;;;;27.15;17.45;;;9.40;99.90;;;;;;4990183;28;20041;-66
2021/11/06 08:34:33;;;;;;;28.40;17.33;;;9.40;99.90;;;;;;5001197;28;20034;-66
2021/11/06 08:37:00;;;;;;;28.23;16.70;;;9.40;99.90;;;;;;5009122;28;20069;-66
2021/11/06 08:39:27;;;;;;;26.15;17.15;;;9.50;99.90;;;;;;4985782;28;20050;-66
2021/11/06 08:41:55;;;;;;;28.77;16.88;;;9.50;99.90;;;;;;4990380;28;20053;-66
2021/11/06 08:44:22;;;;;;;23.83;16.83;;;9.60;99.90;;;;;;5004644;28;20030;-66
2021/11/06 08:46:51;;;;;;;27.10;16.60;;;9.50;99.90;;;;;;5005101;28;20121;-66
2021/11/06 08:49:18;;;;;;;28.75;17.08;;;9.60;99.90;;;;;;5000287;28;20115;-66
2021/11/06 08:51:46;;;;;;;28.40;17.02;;;9.70;99.90;;;;;;5008188;28;20053;-66
2021/11/06 08:54:13;;;;;;;23.92;15.77;;;9.70;99.90;;;;;;5004059;28;20042;-66
2021/11/06 08:56:39;;;;;;;25.05;16.83;;;9.70;99.90;;;;;;5005387;28;20500;-67
2021/11/06 08:59:05;;;;;;;25.17;15.63;;;9.70;99.90;;;;;;4983677;28;23585;-66
2021/11/06 09:01:31;;;;;;;28.52;16.17;;;9.80;99.90;;;;;;5005361;28;20133;-66
2021/11/06 09:03:57;;;;;;;27.42;16.27;;;9.80;99.90;;;;;;4988826;28;20080;-66
2021/11/06 09:06:24;;;;;;;28.15;15.77;;;9.80;99.90;;;;;;5003181;28;20065;-66
2021/11/06 09:08:49;;;;;;;27.50;16.83;;;9.80;99.90;;;;;;4991214;28;20577;-67
2021/11/06 09:11:16;;;;;;;26.00;16.67;;;9.80;99.90;;;;;;4985743;28;20140;-66
2021/11/06 09:13:49;;;;;;;24.25;15.75;;;9.80;99.90;;;;;;5008890;28;20502;-66
2021/11/06 09:16:15;;;;;;;26.55;15.80;;;9.90;99.90;;;;;;4998111;28;20042;-66
2021/11/06 09:18:42;;;;;;;29.35;15.85;;;9.90;99.90;;;;;;5003337;28;20039;-66
2021/11/06 09:21:10;;;;;;;27.02;15.98;;;9.90;99.90;;;;;;5001776;28;20038;-67
2021/11/06 09:23:37;;;;;;;25.05;15.88;;;10.00;99.90;;;;;;5005017;28;20037;-66
2021/11/06 09:26:03;;;;;;;28.13;18.13;;;10.10;99.90;;;;;;4997615;28;20045;-66
2021/11/06 09:28:29;;;;;;;27.02;16.13;;;10.20;99.90;;;;;;5004115;28;20537;-66
2021/11/06 09:30:55;;;;;;;25.52;15.60;;;10.40;99.90;;;;;;5003155;28;20066;-66
2021/11/06 09:33:22;;;;;;;26.40;16.40;;;10.50;99.90;;;;;;5005552;28;20038;-66
2021/11/06 09:35:48;;;;;;;23.13;16.20;;;10.60;99.90;;;;;;4983926;28;20062;-66
2021/11/06 09:38:14;;;;;;;26.27;15.43;;;10.70;99.90;;;;;;4994160;28;20097;-66
2021/11/06 09:40:39;;;;;;;22.52;15.13;;;10.80;99.90;;;;;;4987769;28;20077;-67
2021/11/06 09:43:06;;;;;;;26.38;16.25;;;10.70;99.90;;;;;;5006118;28;20141;-66
2021/11/06 09:45:32;;;;;;;23.73;15.65;;;10.80;99.90;;;;;;5009852;28;20402;-66
2021/11/06 09:47:58;;;;;;;24.77;14.90;;;10.80;99.90;;;;;;5006370;28;20038;-66
2021/11/06 09:50:24;;;;;;;22.85;14.10;;;10.80;99.90;;;;;;5014208;28;20045;-66
2021/11/06 09:52:52;;;;;;;29.90;16.88;;;10.80;99.90;;;;;;4987177;28;20085;-66
2021/11/06 09:55:21;;;;;;;26.58;15.02;;;10.80;99.90;;;;;;4992557;28;20053;-66
2021/11/06 09:57:47;;;;;;;24.45;15.63;;;10.90;99.90;;;;;;5007805;28;20046;-66
2021/11/06 10:00:15;;;;;;;22.10;14.98;;;10.90;99.90;;;;;;5007869;28;20123;-66
2021/11/06 10:02:42;;;;;;;26.90;15.73;;;11.00;99.90;;;;;;5002045;28;20065;-66
2021/11/06 10:05:09;;;;;;;25.00;15.23;;;11.00;99.90;;;;;;4993951;28;20462;-66
2021/11/06 10:07:38;;;;;;;26.52;16.50;;;11.00;99.90;;;;;;4986960;28;20053;-67
2021/11/06 10:10:11;;;;;;;24.70;15.38;;;11.00;99.90;;;;;;4990183;28;20060;-67
2021/11/06 10:13:03;;;;;;;23.40;15.40;;;11.10;99.90;;;;;;5003720;28;20128;-67
2021/11/06 10:15:29;;;;;;;27.13;15.30;;;11.10;99.90;;;;;;5004054;28;20076;-67
2021/11/06 10:17:54;;;;;;;23.98;14.82;;;11.10;99.90;;;;;;5006181;28;20034;-67
2021/11/06 10:20:30;;;;;;;21.02;13.43;;;11.00;99.90;;;;;;5007641;28;20038;-67
2021/11/06 10:23:05;;;;;;;22.88;14.13;;;11.00;99.90;;;;;;4986942;28;20046;-67
2021/11/06 10:25:32;;;;;;;24.33;13.60;;;11.10;99.90;;;;;;5011381;28;20030;-67
2021/11/06 10:28:04;;;;;;;23.85;14.93;;;11.10;99.90;;;;;;5001336;28;20052;-67
2021/11/06 10:30:36;;;;;;;25.02;14.70;;;11.00;99.90;;;;;;4988828;28;20042;-67
2021/11/06 10:33:05;;;;;;;23.35;14.05;;;11.00;99.90;;;;;;4996907;28;20406;-67
2021/11/06 10:35:40;;;;;;;25.70;14.43;;;11.00;99.90;;;;;;5006585;28;20056;-67
2021/11/06 10:38:10;;;;;;;24.42;14.75;;;11.00;99.90;;;;;;4988813;28;20054;-67
2021/11/06 10:40:40;;;;;;;22.10;13.45;;;11.00;99.90;;;;;;5005000;28;20457;-67
2021/11/06 10:43:07;;;;;;;25.98;13.75;;;11.00;99.90;;;;;;4994345;28;20041;-67
2021/11/06 10:45:36;;;;;;;22.08;13.73;;;11.00;99.90;;;;;;5008757;28;20115;-67
2021/11/06 10:48:15;;;;;;;21.77;13.90;;;11.00;99.90;;;;;;5004710;28;20057;-67
2021/11/06 10:50:46;;;;;;;24.27;14.73;;;11.00;99.90;;;;;;5005950;28;20037;-67
2021/11/06 10:53:33;;;;;;;24.70;14.23;;;11.00;99.90;;;;;;4985762;28;20049;-67
2021/11/06 10:56:01;;;;;;;20.27;12.80;;;11.00;99.90;;;;;;4989374;28;20063;-67
2021/11/06 10:58:34;;;;;;;23.02;13.65;;;11.00;99.90;;;;;;5004590;28;20072;-67
2021/11/06 11:01:07;;;;;;;25.13;13.17;;;11.00;99.90;;;;;;4990671;28;20517;-67
2021/11/06 11:03:40;;;;;;;24.98;12.73;;;11.00;99.90;;;;;;5006409;28;20053;-67
2021/11/06 11:06:22;;;;;;;22.70;13.38;;;11.00;99.90;;;;;;5004608;28;20174;-67
2021/11/06 11:08:53;;;;;;;20.98;11.98;;;10.90;99.90;;;;;;5006096;28;20055;-67
2021/11/06 11:11:21;;;;;;;21.27;11.18;;;10.90;99.90;;;;;;4988348;28;20225;-67
2021/11/06 11:13:54;;;;;;;21.95;12.13;;;10.90;99.90;;;;;;5001578;28;20088;-67
2021/11/06 11:16:21;;;;;;;21.38;11.43;;;11.00;99.90;;;;;;5002619;28;20525;-67
2021/11/06 11:18:52;;;;;;;20.90;11.55;;;11.00;99.90;;;;;;5009148;28;20123;-67
2021/11/06 11:21:25;;;;;;;18.98;11.38;;;11.00;99.90;;;;;;4997725;28;20037;-67
2021/11/06 11:23:58;;;;;;;19.85;11.20;;;11.10;99.90;;;;;;5007279;28;20092;-67
2021/11/06 11:26:29;;;;;;;20.13;11.45;;;11.00;99.90;;;;;;4982554;28;20156;-67
2021/11/06 11:28:55;;;;;;;20.35;11.50;;;11.10;99.90;;;;;;4970114;28;20525;-66
2021/11/06 11:31:23;;;;;;;19.52;9.82;;;11.10;99.90;;;;;;4997921;28;20042;-66
2021/11/06 11:33:50;;;;;;;18.98;10.57;;;11.20;99.90;;;;;;5006594;28;20160;-66
2021/11/06 11:36:19;;;;;;;20.23;10.05;;;11.20;99.90;;;;;;5001382;28;20062;-66
2021/11/06 11:38:46;;;;;;;17.10;9.90;;;11.20;99.90;;;;;;5006436;28;20529;-66
2021/11/06 11:41:31;;;;;;;17.38;9.80;;;11.30;99.90;;;;;;5000552;28;20042;-66
2021/11/06 11:44:18;;;;;;;16.17;10.98;;;11.50;99.90;;;;;;5004224;28;20046;-66
2021/11/06 11:46:49;;;;;;;17.08;9.52;;;11.70;99.90;;;;;;4983580;28;20042;-66
2021/11/06 11:49:17;;;;;;;18.55;9.98;;;11.80;99.90;;;;;;5009279;28;20144;-66
2021/11/06 11:51:43;;;;;;;18.10;8.80;;;11.80;99.90;;;;;;4982354;28;20033;-66
2021/11/06 11:54:11;;;;;;;16.48;9.15;;;11.80;99.90;;;;;;5006641;28;20320;-66
2021/11/06 11:56:39;;;;;;;19.67;9.68;;;11.80;99.90;;;;;;4998966;28;20055;-66
2021/11/06 11:59:06;;;;;;;16.90;9.88;;;11.80;99.90;;;;;;5007427;28;20057;-66
2021/11/06 12:01:33;;;;;;;14.95;8.75;;;11.70;99.90;;;;;;4981841;28;20042;-66
2021/11/06 12:04:17;;;;;;;13.30;8.48;;;11.60;99.90;;;;;;5006957;28;20053;-66
2021/11/06 12:06:44;;;;;;;16.10;8.98;;;11.70;99.90;;;;;;4983663;28;20043;-66
2021/11/06 12:09:16;;;;;;;15.80;8.40;;;11.70;99.90;;;;;;5002613;28;20044;-66
2021/11/06 12:11:44;;;;;;;18.55;8.70;;;11.60;99.90;;;;;;4978592;28;20451;-66
2021/11/06 12:14:28;;;;;;;16.77;8.85;;;11.60;99.90;;;;;;5003360;28;20070;-66
2021/11/06 12:17:00;;;;;;;16.80;7.80;;;11.60;99.90;;;;;;4984497;28;20481;-66
2021/11/06 12:19:50;;;;;;;15.07;8.55;;;11.60;99.90;;;;;;4989997;28;20060;-66
2021/11/06 12:22:24;;;;;;;15.55;8.00;;;11.70;99.90;;;;;;4981628;28;20050;-66
2021/11/06 12:24:52;;;;;;;15.02;8.25;;;11.70;99.90;;;;;;4984648;28;20069;-66
2021/11/06 12:27:40;;;;;;;11.50;7.60;;;11.70;99.90;;;;;;5002700;28;20092;-66
2021/11/06 12:30:06;;;;;;;13.77;7.03;;;11.70;99.90;;;;;;4984258;28;20053;-67
2021/11/06 12:32:36;;;;;;;10.07;7.00;;;11.60;99.90;;;;;;5000101;28;20034;-67
2021/11/06 12:35:11;;;;;;;12.45;7.15;;;11.60;99.90;;;;;;4984744;28;20118;-65
2021/11/06 12:37:37;;;;;;;14.75;7.63;;;11.60;99.90;;;;;;4979976;28;20060;-66
2021/11/06 12:40:06;;;;;;;16.50;7.50;;;11.60;99.90;;;;;;4984352;28;20360;-66